Polarstern — DBLK — position and weather

sailwx.info

Track history (hours):
 
Tides and Currents Weather Stations Pressure Air Temp Water Temp Dewpoint Dewpoint Depression Visibility Wind Speed Wind Dir Waves Ship Positions

Oceanographic research ship Polarstern (Germany)

Detailed information on ship capabilities available from University of Delaware's Ocean Information Center and ARCUS's ALIAS (Arctic Logistics Information and Support) project.

Last reported at 2015-May-29 22:00 UTC. Time now 2015-May-30 00:12 UTC.
Position N 81°00' E 019°18'.

Length 117.9 m; beam 25 m; draft 10.7 m.

MMSI: 211202460.

Wind from 100 at 17 knots

Barometer 1015.4 mb
Air temperature -5.7 ° C
Dewpoint -6.4 ° C
Water temperature -1.3 ° C

Date/timePositionNaut miles runAvg speedWind from/ knotsBaromVisibWave heightAir tempDewpointWater temp
2015-May-29 22:00N 81°00' E 019°18'7 6.6 100 / 171015.4 -5.7-6.4-1.3
2015-May-29 21:00N 81°06' E 019°00'8 2.7 100 / 171015.8 -5.3-5.6-1.6
2015-May-29 18:00N 81°12' E 018°24'1 0.9 100 / 161015.9 5.4 -4.0-4.3-1.7
2015-May-29 17:00N 81°12' E 018°30'0 0.0 100 / 171015.9 -3.4-3.9-1.7
2015-May-29 16:00N 81°12' E 018°30'0 0.0 100 / 161015.7 -3.2-4.1-1.7
2015-May-29 15:00N 81°12' E 018°30'0 0.0 100 / 161015.810.8 -3.4-4.1-1.7
2015-May-29 14:00N 81°12' E 018°30'1 0.9 110 / 141016.1 -3.9-4.8-1.7
2015-May-29 13:00N 81°12' E 018°36'0 0.0 100 / 161016.0 -4.2-5.0-1.7
2015-May-29 12:00N 81°12' E 018°36'0 0.0 110 / 161016.010.8 -4.5-5.4-1.7
2015-May-29 11:00N 81°12' E 018°36'0 0.0 100 / 161016.3 -4.2-5.0-1.5
2015-May-29 10:00N 81°12' E 018°36'1 0.2 110 / 161016.3 -4.3-4.7-1.7
2015-May-29 06:00N 81°12' E 018°42'1 0.9 110 / 161016.5 5.4 -4.0-4.6-1.7
2015-May-29 05:00N 81°12' E 018°48'0 0.0 100 / 161016.6 -3.3-4.2-1.7
2015-May-29 04:00N 81°12' E 018°48'0 0.0 100 / 141016.9 -3.1-4.1-1.7
2015-May-29 03:00N 81°12' E 018°48'0 0.0 090 / 141017.2 -3.0-3.5-1.7
2015-May-29 02:00N 81°12' E 018°48'0 0.0 070 / 141017.5 -3.6-4.3-1.7
2015-May-29 01:00N 81°12' E 018°48'0 0.0 070 / 141017.9 -3.7-4.5-1.7
2015-May-29 00:00N 81°12' E 018°48'1 0.9 070 / 141017.9 -3.9-5.0-1.7
2015-May-28 23:00N 81°12' E 018°54'0 0.0 070 / 141018.1 -4.0-5.1-1.7
2015-May-28 22:00N 81°12' E 018°54'0 0.0 070 / 141018.4 -4.0-5.3-1.7
2015-May-28 21:00N 81°12' E 018°54'1 0.3 080 / 141018.7 -4.0-5.5-1.7
2015-May-28 18:00N 81°12' E 019°00'0 0.0 100 / 121019.410.8 -3.9-6.0-1.7
2015-May-28 17:00N 81°12' E 019°00'0 0.0 080 / 121019.4 -3.8-6.1-1.7
2015-May-28 16:00N 81°12' E 019°00'1 0.9 100 / 121019.7 -3.7-6.2-1.7
2015-May-28 15:00N 81°12' E 019°06'0 0.0 090 / 101019.710.8 -3.7-5.8-1.7
2015-May-28 14:00N 81°12' E 019°06'0 0.0 080 / 121019.9 -3.8-5.8-1.7
2015-May-28 13:00N 81°12' E 019°06'0 0.0 080 / 101020.0 -3.9-6.3-1.7
2015-May-28 10:00N 81°12' E 019°06'0 0.0 120 / 121020.3 -4.3-7.0-1.7
2015-May-28 09:00N 81°12' E 019°06'0 0.0 120 / 121020.510.8 -4.2-7.0-1.7
2015-May-28 06:00N 81°12' E 019°06'1 0.5 110 / 81020.710.8 -4.6-7.2-1.7
2015-May-28 04:00N 81°12' E 019°12'0 0.0 120 / 41020.9 -4.5-6.1-1.6
2015-May-28 03:00N 81°12' E 019°12'0 0.0 120 / 61021.0 -4.5-5.6-1.6
2015-May-28 02:00N 81°12' E 019°12'1 0.9 050 / 81021.1 -4.4-4.9-1.6
2015-May-28 01:00N 81°12' E 019°06'1 0.9 030 / 81021.4 -4.6-5.1-1.7
2015-May-28 00:00N 81°12' E 019°12'6 6.1 030 / 81021.6 -4.7-5.3-1.7
2015-May-27 23:00N 81°06' E 019°06'5 2.3 030 / 101021.8 -4.6-5.2-1.7
2015-May-27 21:00N 81°06' E 019°36'1 0.9 030 / 101022.0 -4.8-5.2-1.7
2015-May-27 20:00N 81°06' E 019°30'2 1.9 030 / 101022.2 -4.7-5.1-1.5
2015-May-27 19:00N 81°06' E 019°42'6 6.0 030 / 101022.4 -4.7-5.6-1.4
2015-May-27 18:00N 81°00' E 019°42'2 0.5 030 / 61022.710.8 -4.5-5.8-1.3
2015-May-27 14:00N 81°00' E 019°30'8 7.6 050 / 81023.4 -4.8-7.0-1.2
2015-May-27 13:00N 80°54' E 019°00'6 5.7 030 / 101023.6 -5.1-7.2-1.1
2015-May-27 12:00N 80°54' E 018°24'8 7.7 010 / 101023.810.8 -5.5-7.2-1.1
2015-May-27 11:00N 80°48' E 017°54'6 5.8 020 / 141023.6 -5.2-7.3-0.1
2015-May-27 10:00N 80°48' E 017°18'121 9.3 040 / 101023.8 -4.7-6.4 0.1
2015-May-26 21:00N 79°30' E 008°18'1212.0 130 / 21020.9 1.2-2.2 4.7
2015-May-26 20:00N 79°18' E 008°18'1212.1 300 / 21020.8 1.6-1.9 4.9
2015-May-26 19:00N 79°06' E 008°24'1212.1 120 / 41020.3 1.7-1.7 4.1
2015-May-26 18:00N 78°54' E 008°30'1212.0 310 / 21020.110.8 1.6-2.4 5.1
2015-May-26 17:00N 78°42' E 008°30'1212.1 260 / 21020.0 1.6-3.2 4.9
2015-May-26 16:00N 78°30' E 008°36'1212.1 240 / 21019.9 1.5-2.9 5.0
2015-May-26 15:00N 78°18' E 008°42'1212.0 230 / 41019.810.8 1.3-3.6 4.0
2015-May-26 14:00N 78°06' E 008°42'1212.1 260 / 41019.6 1.2-3.5 4.8
2015-May-26 13:00N 77°54' E 008°48'1212.3 280 / 21019.3 1.1-3.0 4.6
2015-May-26 12:00N 77°42' E 009°00'1212.1 300 / 41018.910.8 1.1-2.4 4.9
2015-May-26 11:00N 77°30' E 009°06'7 6.5 340 / 21018.5 1.1-1.8 4.6
2015-May-26 10:00N 77°24' E 009°18'1212.1 350 / 61018.0 0.5-1.3 4.6
2015-May-26 09:00N 77°12' E 009°24'6 6.1 300 / 61017.610.8 0.8-0.7 4.3
2015-May-26 08:00N 77°06' E 009°30'0 0.0 280 / 41017.3 0.8-1.4 4.2
2015-May-26 07:00N 77°06' E 009°30'1212.3 260 / 61017.0 1.1-2.4 4.4
2015-May-26 06:00N 76°54' E 009°42'1212.1 290 / 61016.6 5.4 0.9-1.6 4.5
2015-May-26 05:00N 76°42' E 009°48'7 6.6 310 / 61016.3 1.4-2.4 4.4
2015-May-26 04:00N 76°36' E 010°00'1212.1 290 / 41015.9 1.6-4.4 4.3
2015-May-26 03:00N 76°24' E 010°06'1212.1 280 / 21015.9 1.8-4.3 4.7
2015-May-26 02:00N 76°12' E 010°12'2412.2 130 / 21015.8 2.0-4.8 5.3
2015-May-26 00:00N 75°48' E 010°30'6 6.2 080 / 21015.5 1.9-3.5 5.3
2015-May-25 23:00N 75°42' E 010°36'1212.1 020 / 21015.7 1.9-3.4 5.2
2015-May-25 22:00N 75°30' E 010°42'1212.4 330 / 41015.6 1.8-3.4 4.6
2015-May-25 21:00N 75°18' E 010°54'6 6.2 280 / 21015.1 1.8-2.4 5.5
2015-May-25 20:00N 75°12' E 011°00'1212.1 270 / 61015.2 1.8-2.4 5.5
2015-May-25 19:00N 75°00' E 011°06'1212.1 290 / 81014.9 1.8-2.6 5.3
2015-May-25 18:00N 74°48' E 011°12'6 6.2 310 / 81014.927.0 1.8-2.7 5.5
2015-May-25 17:00N 74°42' E 011°18'1212.4 320 / 81014.8 1.8-3.0 5.2
2015-May-25 16:00N 74°30' E 011°30'1212.1 310 / 81015.0 2.2-3.7 5.9
2015-May-25 15:00N 74°18' E 011°36'1212.1 330 / 101014.910.8 0.5 2.3-3.4 4.7
2015-May-25 14:00N 74°06' E 011°42'1212.1 330 / 141015.0 2.3-2.9 6.0
2015-May-25 13:00N 73°54' E 011°48'6 6.2 340 / 161014.6 2.5-2.2 6.5
2015-May-25 12:00N 73°48' E 011°54'1212.1 350 / 161014.310.8 0.5 2.2 0.2 6.6
2015-May-25 11:00N 73°36' E 012°00'1212.5 360 / 121014.0 3.1-2.2 6.7
2015-May-25 10:00N 73°24' E 012°12'1212.1 040 / 101013.5 2.7-0.1 6.7
2015-May-25 09:00N 73°12' E 012°18'6 6.2 010 / 101013.110.8 0.5 2.7 0.2 6.6
2015-May-25 08:00N 73°06' E 012°24'1212.1 340 / 101012.6 2.9-0.8 6.8
2015-May-25 07:00N 72°54' E 012°30'1212.1 350 / 81012.2 3.0-1.1 6.7
2015-May-25 06:00N 72°42' E 012°36'1212.1 010 / 101011.810.8 0.5 3.2-1.7 6.5
2015-May-25 05:00N 72°30' E 012°42'1212.1 020 / 161011.3 3.1-3.4 6.8
2015-May-25 04:00N 72°18' E 012°48'6 6.3 360 / 141010.9 3.2-2.6 6.6
2015-May-25 03:00N 72°12' E 012°54'1212.1 010 / 171010.6 2.6-1.8 6.9
2015-May-25 02:00N 72°00' E 013°00'1212.1 360 / 161010.4 2.9-2.5 6.8
2015-May-25 01:00N 71°48' E 013°06'6 6.3 360 / 161010.6 2.8-0.7 6.7
2015-May-25 00:00N 71°42' E 013°12'1212.1 350 / 161010.1 3.3-2.1 7.1
2015-May-24 23:00N 71°30' E 013°18'1212.2 010 / 161009.9 3.6-0.9 7.2
2015-May-24 22:00N 71°18' E 013°24'6 6.3 030 / 161009.5 3.1-0.4 7.0
2015-May-24 21:00N 71°12' E 013°30'1212.2 360 / 141008.9 4.0-1.0 7.0
2015-May-24 20:00N 71°00' E 013°36'1212.2 360 / 121008.7 3.9 0.7 7.0
2015-May-24 19:00N 70°48' E 013°42'1212.2 350 / 161008.2 4.4 0.3 7.1
2015-May-24 18:00N 70°36' E 013°48'6 6.3 340 / 121008.310.8 0.5 4.4-0.1 7.4
2015-May-24 17:00N 70°30' E 013°54'1212.2 340 / 161008.1 4.2-0.0 7.5
2015-May-24 16:00N 70°18' E 014°00'1010.1 300 / 81008.5 3.7 0.2 7.3
2015-May-24 15:00N 70°12' E 013°36'1010.2 010 / 81008.510.8 3.2-0.2 7.4
2015-May-24 14:00N 70°12' E 013°06'1010.2 340 / 121008.9 3.5 0.7 7.0
2015-May-24 13:00N 70°12' E 012°36'1010.2 320 / 101008.9 3.6-1.6 7.3
2015-May-24 12:00N 70°12' E 012°06'1212.2 300 / 81009.010.8 0.5 3.3-2.5 7.6
2015-May-24 11:00N 70°12' E 011°30'1212.2 320 / 141008.8 2.6-4.1 7.5
2015-May-24 10:00N 70°12' E 010°54'1211.8 310 / 161008.8 2.6-3.4 7.6
2015-May-24 09:00N 70°06' E 010°24'1010.2 330 / 141008.810.8 0.5 2.4-3.3 7.5
2015-May-24 08:00N 70°06' E 009°54'1010.2 330 / 121008.6 2.4-2.3 7.5
2015-May-24 07:00N 70°06' E 009°24'1010.2 330 / 161008.3 2.3-1.4 7.3
2015-May-24 06:00N 70°06' E 008°54'1010.2 340 / 161008.010.8 0.5 2.4-2.8 7.4
2015-May-24 05:00N 70°06' E 008°24'1010.2 330 / 161007.9 2.6-3.0 7.4
2015-May-24 04:00N 70°06' E 007°54'8 8.2 330 / 161007.9 2.6-3.6 7.5
2015-May-24 03:00N 70°06' E 007°30'1211.9 340 / 121008.2 2.5-2.7 6.8
2015-May-24 02:00N 70°00' E 007°00'2110.3 280 / 81008.8 2.5-4.3 6.5
2015-May-24 00:00N 70°00' E 006°00'1010.3 330 / 101008.8 2.2-5.1 6.5
2015-May-23 23:00N 70°00' E 005°30'1010.3 330 / 81008.8 2.3-4.6 6.3
2015-May-23 22:00N 70°00' E 005°00'1211.9 350 / 81009.0 2.4-3.9 6.4
2015-May-23 21:00N 69°54' E 004°30'1010.3 360 / 121008.8 2.4-3.5 6.2
2015-May-23 20:00N 69°54' E 004°00'1212.0 350 / 81008.8 2.5-3.5 6.2
2015-May-23 19:00N 69°42' E 004°00'6 6.0 360 / 81008.8 2.7-2.4 6.0
2015-May-23 18:00N 69°36' E 004°00'1212.0 350 / 81008.910.8 0.5 2.9-2.0 6.3
2015-May-23 17:00N 69°24' E 004°00'6 6.0 020 / 121008.6 3.2-1.5 6.3
2015-May-23 16:00N 69°18' E 004°00'1212.0 020 / 141008.3 3.6-0.2 6.9
2015-May-23 15:00N 69°06' E 004°00'6 6.0 360 / 191007.910.8 1.5 3.7-1.5 6.3
2015-May-23 14:00N 69°00' E 004°00'1212.0 360 / 211007.3 4.0-0.9 7.5
2015-May-23 13:00N 68°48' E 004°00'6 6.0 350 / 251006.8 4.2 0.3 6.7
2015-May-23 12:00N 68°42' E 004°00'1212.0 350 / 271006.110.8 2.0 4.8 1.3 7.0
2015-May-23 11:00N 68°30' E 004°00'6 6.4 350 / 251005.5 3.6 2.4 7.6
2015-May-23 10:00N 68°24' E 003°54'1212.0 330 / 251004.3 4.9 1.8 7.6
2015-May-23 09:00N 68°12' E 003°54'6 6.0 320 / 311004.010.8 3.0 4.2 0.8 7.3
2015-May-23 08:00N 68°06' E 003°54'1212.0 330 / 271004.3 4.3 1.3 7.5
2015-May-23 07:00N 67°54' E 003°54'6 6.0 310 / 271003.8 3.3 0.2 7.5
2015-May-23 06:00N 67°48' E 003°54'6 6.0 300 / 271003.710.8 3.0 3.0 1.1 7.5
2015-May-23 05:00N 67°42' E 003°54'1212.2 300 / 271004.1 4.1-0.5 7.5
2015-May-23 04:00N 67°30' E 003°48'6 6.0 310 / 291004.0 4.2 0.3 7.6
2015-May-23 03:00N 67°24' E 003°48'6 6.0 310 / 311003.6 4.3-0.2 7.6
2015-May-23 02:00N 67°18' E 003°48'6 6.0 320 / 331003.3 4.6 1.0 7.7
2015-May-23 01:00N 67°12' E 003°48'6 6.0 320 / 331002.6 5.4 2.7 8.2
2015-May-23 00:00N 67°06' E 003°48'1212.0 330 / 351001.9 4.8 3.1 8.3
2015-May-22 23:00N 66°54' E 003°48'6 6.0 310 / 211002.1 6.2 2.6 8.2
2015-May-22 22:00N 66°48' E 003°48'1212.0 330 / 161001.6 5.8 2.0 7.9
2015-May-22 21:00N 66°36' E 003°48'6 6.5 300 / 121000.9 5.9 2.3 8.0
2015-May-22 20:00N 66°30' E 003°42'1212.0 290 / 141000.1 5.9 2.0 8.1
2015-May-22 19:00N 66°18' E 003°42'6 6.0 270 / 10999.5 6.3 1.3 8.2
2015-May-22 18:00N 66°12' E 003°42'1212.0 240 / 6998.710.8 6.2 1.1 8.1
2015-May-22 17:00N 66°00' E 003°42'6 6.0 280 / 12998.0 5.6 0.1 8.0
2015-May-22 16:00N 65°54' E 003°42'1212.0 220 / 12997.7 6.6 1.8 8.2
2015-May-22 15:00N 65°42' E 003°42'1212.3 230 / 10997.7 5.9 1.2 8.5
2015-May-22 14:00N 65°30' E 003°36'6 6.0 250 / 10997.5 5.5 1.4 8.5
2015-May-22 13:00N 65°24' E 003°36'1212.0 250 / 16997.6 5.9 1.1 8.7
2015-May-22 12:00N 65°12' E 003°36'6 6.0 230 / 19997.710.8 1.5 6.0 2.1 8.6
2015-May-22 11:00N 65°06' E 003°36'1212.0 220 / 21997.8 5.7 1.5 8.7
2015-May-22 10:00N 64°54' E 003°36'1212.0 240 / 19998.2 5.5-0.2 8.6
2015-May-22 09:00N 64°42' E 003°36'6 6.0 230 / 29998.610.8 2.0 6.5 0.2 8.4
2015-May-22 08:00N 64°36' E 003°36'1212.3 240 / 27999.2 5.4 1.5 7.7
2015-May-22 07:00N 64°24' E 003°30'6 6.0 240 / 25999.6 6.5 1.5 8.4
2015-May-22 06:00N 64°18' E 003°30'1212.0 230 / 251000.110.8 2.5 6.7 2.2 8.6
2015-May-22 05:00N 64°06' E 003°30'6 6.0 240 / 29999.8 4.9 1.8 8.6
2015-May-22 04:00N 64°00' E 003°30'1212.0 250 / 251000.3 7.1 1.9 8.6
2015-May-22 03:00N 63°48' E 003°30'1212.0 270 / 271000.4 6.8 2.8 8.5
2015-May-22 02:00N 63°36' E 003°30'6 6.0 260 / 271000.5 7.2 3.7 9.1
2015-May-22 01:00N 63°30' E 003°30'1212.3 270 / 251001.0 7.4 4.8 9.0
2015-May-22 00:00N 63°18' E 003°24'1212.0 210 / 311001.0 8.7 8.5 9.0
2015-May-21 23:00N 63°06' E 003°24'1212.0 200 / 271002.7 8.7 8.4 9.0
2015-May-21 22:00N 62°54' E 003°24'6 6.0 200 / 271004.3 8.6 8.5 8.5
2015-May-21 21:00N 62°48' E 003°24'1212.0 200 / 271005.9 8.5 8.0 8.9
2015-May-21 20:00N 62°36' E 003°24'1212.0 200 / 251007.1 8.5 7.9 8.6
2015-May-21 19:00N 62°24' E 003°24'1212.3 200 / 231008.0 8.7 7.9 8.6
2015-May-21 18:00N 62°12' E 003°18'1212.0 210 / 231008.7 5.4 1.5 8.6 7.7 8.5
2015-May-21 17:00N 62°00' E 003°18'1212.0 210 / 211009.7 8.6 8.0 8.2
2015-May-21 16:00N 61°48' E 003°18'6 6.0 200 / 211010.4 8.4 8.2 8.4
2015-May-21 15:00N 61°42' E 003°18'1212.0 180 / 231010.6 2.2 1.5 8.7 7.6 8.5
2015-May-21 14:00N 61°30' E 003°18'1212.0 190 / 231011.6 8.9 7.4 8.6
2015-May-21 13:00N 61°18' E 003°18'1212.0 190 / 211012.0 8.1 6.3 8.6
2015-May-21 12:00N 61°06' E 003°18'7 6.7 210 / 191012.3 5.4 1.0 7.9 5.8 8.6
2015-May-21 11:00N 61°00' E 003°12'1212.0 220 / 211012.7 8.0 5.9 8.9
2015-May-21 10:00N 60°48' E 003°12'1212.4 180 / 211013.0 8.0 7.0 8.7
2015-May-21 09:00N 60°36' E 003°18'1212.0 200 / 191013.6 5.4 1.0 7.7 5.8 7.9
2015-May-21 08:00N 60°24' E 003°18'1212.0 210 / 141013.9 7.9 6.1 8.7
2015-May-21 07:00N 60°12' E 003°18'1212.4 220 / 161014.0 8.0 6.0 8.7
2015-May-21 06:00N 60°00' E 003°24'1212.0 240 / 161014.010.8 0.5 8.3 5.7 8.9
2015-May-21 05:00N 59°48' E 003°24'1212.0 250 / 121014.3 8.4 6.0 8.9
2015-May-21 04:00N 59°36' E 003°24'6 6.0 230 / 121014.3 8.3 6.2 8.8
2015-May-21 03:00N 59°30' E 003°24'1212.4 240 / 101014.5 8.4 5.2 8.8
2015-May-21 02:00N 59°18' E 003°30'1212.0 210 / 61014.7 8.4 5.5 8.8
2015-May-21 01:00N 59°06' E 003°30'1212.0 200 / 41014.9 8.4 5.4 8.4
2015-May-21 00:00N 58°54' E 003°30'7 6.8 250 / 61014.9 8.2 6.5 8.8
2015-May-20 23:00N 58°48' E 003°36'1413.5 210 / 21014.6 8.2 5.3 9.0
2015-May-20 22:00N 58°36' E 003°48'9 8.7 310 / 21014.5 8.2 6.2 9.0
2015-May-20 21:00N 58°30' E 004°00'1413.5 320 / 41014.2 8.4 6.0 7.9
2015-May-20 20:00N 58°18' E 004°12'9 8.7 320 / 61013.2 8.6 6.5 9.0
2015-May-20 19:00N 58°12' E 004°24'1413.6 310 / 41012.6 8.8 6.4 9.0
2015-May-20 18:00N 58°00' E 004°36'9 8.7 060 / 41011.527.0 8.6 5.6 8.9
2015-May-20 17:00N 57°54' E 004°48'1413.6 030 / 21010.7 8.6 5.4 9.0
2015-May-20 16:00N 57°42' E 005°00'9 8.8 050 / 21010.0 8.4 5.6 8.9
2015-May-20 15:00N 57°36' E 005°12'1413.6 100 / 41009.127.0 8.3 5.6 9.2
2015-May-20 14:00N 57°24' E 005°24'7 6.8 160 / 21008.3 8.4 6.1 9.2
2015-May-20 13:00N 57°18' E 005°30'7 6.8 180 / 21007.9 7.8 6.2 9.1
2015-May-20 12:00N 57°12' E 005°36'7 6.8 290 / 21007.110.8 7.6 6.3 8.9
2015-May-20 11:00N 57°06' E 005°42'1212.4 210 / 121006.1 8.1 6.6 8.2
2015-May-20 10:00N 56°54' E 005°48'1212.4 190 / 161005.8 8.2 6.4 8.5
2015-May-20 09:00N 56°42' E 005°54'7 6.8 180 / 161005.6 5.4 0.5 8.3 7.0 8.6
2015-May-20 08:00N 56°36' E 006°00'1212.4 190 / 161005.6 8.6 6.3 8.4
2015-May-20 07:00N 56°24' E 006°06'7 6.9 200 / 161005.1 8.5 6.2 8.4
2015-May-20 06:00N 56°18' E 006°12'1212.5 200 / 141004.610.8 0.5 8.4 6.8 8.5
2015-May-20 05:00N 56°06' E 006°18'1212.5 200 / 121004.7 8.4 7.2 8.5
2015-May-20 04:00N 55°54' E 006°24'1212.5 210 / 121004.6 8.3 6.9 8.4
2015-May-20 03:00N 55°42' E 006°30'1212.5 220 / 141004.6 8.3 6.7 8.5
2015-May-20 02:00N 55°30' E 006°36'3 7.0 220 / 141004.6 8.6 6.5 8.7
2015-May-20 01:33N 55°27' E 006°35'916.0
2015-May-20 01:00N 55°18' E 006°36'3 7.2 210 / 121004.5 8.9 6.9 8.9
2015-May-20 00:33N 55°16' E 006°40'4 7.5
2015-May-20 00:00N 55°12' E 006°42'614.8 200 / 121004.7 9.1 7.2 9.0
2015-May-19 23:33N 55°06' E 006°45'610.7
2015-May-19 23:00N 55°00' E 006°48'4 9.7 210 / 121004.9 9.3 7.1 9.2
2015-May-19 22:33N 54°57' E 006°52'5 9.0
2015-May-19 22:00N 54°54' E 007°00'   210 / 121005.1 9.5 6.8 9.4
Track history (hours):
 
Tides and Currents Weather Stations Pressure Air Temp Water Temp Dewpoint Dewpoint Depression Visibility Wind Speed Wind Dir Waves Ship Positions

Oceanographic research ship Polarstern (Germany)

Detailed information on ship capabilities available from University of Delaware's Ocean Information Center and ARCUS's ALIAS (Arctic Logistics Information and Support) project.

Last reported at 2015-May-29 22:00 UTC. Time now 2015-May-30 00:12 UTC.
Position N 81°00' E 019°18'.

Length 117.9 m; beam 25 m; draft 10.7 m.

MMSI: 211202460.

Wind from 100 at 17 knots

Barometer 1015.4 mb
Air temperature -5.7 ° C
Dewpoint -6.4 ° C
Water temperature -1.3 ° C

Date/timePositionNaut miles runAvg speedWind from/ knotsBaromVisibWave heightAir tempDewpointWater temp
2015-May-29 22:00N 81°00' E 019°18'7 6.6 100 / 171015.4 -5.7-6.4-1.3
2015-May-29 21:00N 81°06' E 019°00'8 2.7 100 / 171015.8 -5.3-5.6-1.6
2015-May-29 18:00N 81°12' E 018°24'1 0.9 100 / 161015.9 5.4 -4.0-4.3-1.7
2015-May-29 17:00N 81°12' E 018°30'0 0.0 100 / 171015.9 -3.4-3.9-1.7
2015-May-29 16:00N 81°12' E 018°30'0 0.0 100 / 161015.7 -3.2-4.1-1.7
2015-May-29 15:00N 81°12' E 018°30'0 0.0 100 / 161015.810.8 -3.4-4.1-1.7
2015-May-29 14:00N 81°12' E 018°30'1 0.9 110 / 141016.1 -3.9-4.8-1.7
2015-May-29 13:00N 81°12' E 018°36'0 0.0 100 / 161016.0 -4.2-5.0-1.7
2015-May-29 12:00N 81°12' E 018°36'0 0.0 110 / 161016.010.8 -4.5-5.4-1.7
2015-May-29 11:00N 81°12' E 018°36'0 0.0 100 / 161016.3 -4.2-5.0-1.5
2015-May-29 10:00N 81°12' E 018°36'1 0.2 110 / 161016.3 -4.3-4.7-1.7
2015-May-29 06:00N 81°12' E 018°42'1 0.9 110 / 161016.5 5.4 -4.0-4.6-1.7
2015-May-29 05:00N 81°12' E 018°48'0 0.0 100 / 161016.6 -3.3-4.2-1.7
2015-May-29 04:00N 81°12' E 018°48'0 0.0 100 / 141016.9 -3.1-4.1-1.7
2015-May-29 03:00N 81°12' E 018°48'0 0.0 090 / 141017.2 -3.0-3.5-1.7
2015-May-29 02:00N 81°12' E 018°48'0 0.0 070 / 141017.5 -3.6-4.3-1.7
2015-May-29 01:00N 81°12' E 018°48'0 0.0 070 / 141017.9 -3.7-4.5-1.7
2015-May-29 00:00N 81°12' E 018°48'1 0.9 070 / 141017.9 -3.9-5.0-1.7
2015-May-28 23:00N 81°12' E 018°54'0 0.0 070 / 141018.1 -4.0-5.1-1.7
2015-May-28 22:00N 81°12' E 018°54'0 0.0 070 / 141018.4 -4.0-5.3-1.7
2015-May-28 21:00N 81°12' E 018°54'1 0.3 080 / 141018.7 -4.0-5.5-1.7
2015-May-28 18:00N 81°12' E 019°00'0 0.0 100 / 121019.410.8 -3.9-6.0-1.7
2015-May-28 17:00N 81°12' E 019°00'0 0.0 080 / 121019.4 -3.8-6.1-1.7
2015-May-28 16:00N 81°12' E 019°00'1 0.9 100 / 121019.7 -3.7-6.2-1.7
2015-May-28 15:00N 81°12' E 019°06'0 0.0 090 / 101019.710.8 -3.7-5.8-1.7
2015-May-28 14:00N 81°12' E 019°06'0 0.0 080 / 121019.9 -3.8-5.8-1.7
2015-May-28 13:00N 81°12' E 019°06'0 0.0 080 / 101020.0 -3.9-6.3-1.7
2015-May-28 10:00N 81°12' E 019°06'0 0.0 120 / 121020.3 -4.3-7.0-1.7
2015-May-28 09:00N 81°12' E 019°06'0 0.0 120 / 121020.510.8 -4.2-7.0-1.7
2015-May-28 06:00N 81°12' E 019°06'1 0.5 110 / 81020.710.8 -4.6-7.2-1.7
2015-May-28 04:00N 81°12' E 019°12'0 0.0 120 / 41020.9 -4.5-6.1-1.6
2015-May-28 03:00N 81°12' E 019°12'0 0.0 120 / 61021.0 -4.5-5.6-1.6
2015-May-28 02:00N 81°12' E 019°12'1 0.9 050 / 81021.1 -4.4-4.9-1.6
2015-May-28 01:00N 81°12' E 019°06'1 0.9 030 / 81021.4 -4.6-5.1-1.7
2015-May-28 00:00N 81°12' E 019°12'6 6.1 030 / 81021.6 -4.7-5.3-1.7
2015-May-27 23:00N 81°06' E 019°06'5 2.3 030 / 101021.8 -4.6-5.2-1.7
2015-May-27 21:00N 81°06' E 019°36'1 0.9 030 / 101022.0 -4.8-5.2-1.7
2015-May-27 20:00N 81°06' E 019°30'2 1.9 030 / 101022.2 -4.7-5.1-1.5
2015-May-27 19:00N 81°06' E 019°42'6 6.0 030 / 101022.4 -4.7-5.6-1.4
2015-May-27 18:00N 81°00' E 019°42'2 0.5 030 / 61022.710.8 -4.5-5.8-1.3
2015-May-27 14:00N 81°00' E 019°30'8 7.6 050 / 81023.4 -4.8-7.0-1.2
2015-May-27 13:00N 80°54' E 019°00'6 5.7 030 / 101023.6 -5.1-7.2-1.1
2015-May-27 12:00N 80°54' E 018°24'8 7.7 010 / 101023.810.8 -5.5-7.2-1.1
2015-May-27 11:00N 80°48' E 017°54'6 5.8 020 / 141023.6 -5.2-7.3-0.1
2015-May-27 10:00N 80°48' E 017°18'121 9.3 040 / 101023.8 -4.7-6.4 0.1
2015-May-26 21:00N 79°30' E 008°18'1212.0 130 / 21020.9 1.2-2.2 4.7
2015-May-26 20:00N 79°18' E 008°18'1212.1 300 / 21020.8 1.6-1.9 4.9
2015-May-26 19:00N 79°06' E 008°24'1212.1 120 / 41020.3 1.7-1.7 4.1
2015-May-26 18:00N 78°54' E 008°30'1212.0 310 / 21020.110.8 1.6-2.4 5.1
2015-May-26 17:00N 78°42' E 008°30'1212.1 260 / 21020.0 1.6-3.2 4.9
2015-May-26 16:00N 78°30' E 008°36'1212.1 240 / 21019.9 1.5-2.9 5.0
2015-May-26 15:00N 78°18' E 008°42'1212.0 230 / 41019.810.8 1.3-3.6 4.0
2015-May-26 14:00N 78°06' E 008°42'1212.1 260 / 41019.6 1.2-3.5 4.8
2015-May-26 13:00N 77°54' E 008°48'1212.3 280 / 21019.3 1.1-3.0 4.6
2015-May-26 12:00N 77°42' E 009°00'1212.1 300 / 41018.910.8 1.1-2.4 4.9
2015-May-26 11:00N 77°30' E 009°06'7 6.5 340 / 21018.5 1.1-1.8 4.6
2015-May-26 10:00N 77°24' E 009°18'1212.1 350 / 61018.0 0.5-1.3 4.6
2015-May-26 09:00N 77°12' E 009°24'6 6.1 300 / 61017.610.8 0.8-0.7 4.3
2015-May-26 08:00N 77°06' E 009°30'0 0.0 280 / 41017.3 0.8-1.4 4.2
2015-May-26 07:00N 77°06' E 009°30'1212.3 260 / 61017.0 1.1-2.4 4.4
2015-May-26 06:00N 76°54' E 009°42'1212.1 290 / 61016.6 5.4 0.9-1.6 4.5
2015-May-26 05:00N 76°42' E 009°48'7 6.6 310 / 61016.3 1.4-2.4 4.4
2015-May-26 04:00N 76°36' E 010°00'1212.1 290 / 41015.9 1.6-4.4 4.3
2015-May-26 03:00N 76°24' E 010°06'1212.1 280 / 21015.9 1.8-4.3 4.7
2015-May-26 02:00N 76°12' E 010°12'2412.2 130 / 21015.8 2.0-4.8 5.3
2015-May-26 00:00N 75°48' E 010°30'6 6.2 080 / 21015.5 1.9-3.5 5.3
2015-May-25 23:00N 75°42' E 010°36'1212.1 020 / 21015.7 1.9-3.4 5.2
2015-May-25 22:00N 75°30' E 010°42'1212.4 330 / 41015.6 1.8-3.4 4.6
2015-May-25 21:00N 75°18' E 010°54'6 6.2 280 / 21015.1 1.8-2.4 5.5
2015-May-25 20:00N 75°12' E 011°00'1212.1 270 / 61015.2 1.8-2.4 5.5
2015-May-25 19:00N 75°00' E 011°06'1212.1 290 / 81014.9 1.8-2.6 5.3
2015-May-25 18:00N 74°48' E 011°12'6 6.2 310 / 81014.927.0 1.8-2.7 5.5
2015-May-25 17:00N 74°42' E 011°18'1212.4 320 / 81014.8 1.8-3.0 5.2
2015-May-25 16:00N 74°30' E 011°30'1212.1 310 / 81015.0 2.2-3.7 5.9
2015-May-25 15:00N 74°18' E 011°36'1212.1 330 / 101014.910.8 0.5 2.3-3.4 4.7
2015-May-25 14:00N 74°06' E 011°42'1212.1 330 / 141015.0 2.3-2.9 6.0
2015-May-25 13:00N 73°54' E 011°48'6 6.2 340 / 161014.6 2.5-2.2 6.5
2015-May-25 12:00N 73°48' E 011°54'1212.1 350 / 161014.310.8 0.5 2.2 0.2 6.6
2015-May-25 11:00N 73°36' E 012°00'1212.5 360 / 121014.0 3.1-2.2 6.7
2015-May-25 10:00N 73°24' E 012°12'1212.1 040 / 101013.5 2.7-0.1 6.7
2015-May-25 09:00N 73°12' E 012°18'6 6.2 010 / 101013.110.8 0.5 2.7 0.2 6.6
2015-May-25 08:00N 73°06' E 012°24'1212.1 340 / 101012.6 2.9-0.8 6.8
2015-May-25 07:00N 72°54' E 012°30'1212.1 350 / 81012.2 3.0-1.1 6.7
2015-May-25 06:00N 72°42' E 012°36'1212.1 010 / 101011.810.8 0.5 3.2-1.7 6.5
2015-May-25 05:00N 72°30' E 012°42'1212.1 020 / 161011.3 3.1-3.4 6.8
2015-May-25 04:00N 72°18' E 012°48'6 6.3 360 / 141010.9 3.2-2.6 6.6
2015-May-25 03:00N 72°12' E 012°54'1212.1 010 / 171010.6 2.6-1.8 6.9
2015-May-25 02:00N 72°00' E 013°00'1212.1 360 / 161010.4 2.9-2.5 6.8
2015-May-25 01:00N 71°48' E 013°06'6 6.3 360 / 161010.6 2.8-0.7 6.7
2015-May-25 00:00N 71°42' E 013°12'1212.1 350 / 161010.1 3.3-2.1 7.1
2015-May-24 23:00N 71°30' E 013°18'1212.2 010 / 161009.9 3.6-0.9 7.2
2015-May-24 22:00N 71°18' E 013°24'6 6.3 030 / 161009.5 3.1-0.4 7.0
2015-May-24 21:00N 71°12' E 013°30'1212.2 360 / 141008.9 4.0-1.0 7.0
2015-May-24 20:00N 71°00' E 013°36'1212.2 360 / 121008.7 3.9 0.7 7.0
2015-May-24 19:00N 70°48' E 013°42'1212.2 350 / 161008.2 4.4 0.3 7.1
2015-May-24 18:00N 70°36' E 013°48'6 6.3 340 / 121008.310.8 0.5 4.4-0.1 7.4
2015-May-24 17:00N 70°30' E 013°54'1212.2 340 / 161008.1 4.2-0.0 7.5
2015-May-24 16:00N 70°18' E 014°00'1010.1 300 / 81008.5 3.7 0.2 7.3
2015-May-24 15:00N 70°12' E 013°36'1010.2 010 / 81008.510.8 3.2-0.2 7.4
2015-May-24 14:00N 70°12' E 013°06'1010.2 340 / 121008.9 3.5 0.7 7.0
2015-May-24 13:00N 70°12' E 012°36'1010.2 320 / 101008.9 3.6-1.6 7.3
2015-May-24 12:00N 70°12' E 012°06'1212.2 300 / 81009.010.8 0.5 3.3-2.5 7.6
2015-May-24 11:00N 70°12' E 011°30'1212.2 320 / 141008.8 2.6-4.1 7.5
2015-May-24 10:00N 70°12' E 010°54'1211.8 310 / 161008.8 2.6-3.4 7.6
2015-May-24 09:00N 70°06' E 010°24'1010.2 330 / 141008.810.8 0.5 2.4-3.3 7.5
2015-May-24 08:00N 70°06' E 009°54'1010.2 330 / 121008.6 2.4-2.3 7.5
2015-May-24 07:00N 70°06' E 009°24'1010.2 330 / 161008.3 2.3-1.4 7.3
2015-May-24 06:00N 70°06' E 008°54'1010.2 340 / 161008.010.8 0.5 2.4-2.8 7.4
2015-May-24 05:00N 70°06' E 008°24'1010.2 330 / 161007.9 2.6-3.0 7.4
2015-May-24 04:00N 70°06' E 007°54'8 8.2 330 / 161007.9 2.6-3.6 7.5
2015-May-24 03:00N 70°06' E 007°30'1211.9 340 / 121008.2 2.5-2.7 6.8
2015-May-24 02:00N 70°00' E 007°00'2110.3 280 / 81008.8 2.5-4.3 6.5
2015-May-24 00:00N 70°00' E 006°00'1010.3 330 / 101008.8 2.2-5.1 6.5
2015-May-23 23:00N 70°00' E 005°30'1010.3 330 / 81008.8 2.3-4.6 6.3
2015-May-23 22:00N 70°00' E 005°00'1211.9 350 / 81009.0 2.4-3.9 6.4
2015-May-23 21:00N 69°54' E 004°30'1010.3 360 / 121008.8 2.4-3.5 6.2
2015-May-23 20:00N 69°54' E 004°00'1212.0 350 / 81008.8 2.5-3.5 6.2
2015-May-23 19:00N 69°42' E 004°00'6 6.0 360 / 81008.8 2.7-2.4 6.0
2015-May-23 18:00N 69°36' E 004°00'1212.0 350 / 81008.910.8 0.5 2.9-2.0 6.3
2015-May-23 17:00N 69°24' E 004°00'6 6.0 020 / 121008.6 3.2-1.5 6.3
2015-May-23 16:00N 69°18' E 004°00'1212.0 020 / 141008.3 3.6-0.2 6.9
2015-May-23 15:00N 69°06' E 004°00'6 6.0 360 / 191007.910.8 1.5 3.7-1.5 6.3
2015-May-23 14:00N 69°00' E 004°00'1212.0 360 / 211007.3 4.0-0.9 7.5
2015-May-23 13:00N 68°48' E 004°00'6 6.0 350 / 251006.8 4.2 0.3 6.7
2015-May-23 12:00N 68°42' E 004°00'1212.0 350 / 271006.110.8 2.0 4.8 1.3 7.0
2015-May-23 11:00N 68°30' E 004°00'6 6.4 350 / 251005.5 3.6 2.4 7.6
2015-May-23 10:00N 68°24' E 003°54'1212.0 330 / 251004.3 4.9 1.8 7.6
2015-May-23 09:00N 68°12' E 003°54'6 6.0 320 / 311004.010.8 3.0 4.2 0.8 7.3
2015-May-23 08:00N 68°06' E 003°54'1212.0 330 / 271004.3 4.3 1.3 7.5
2015-May-23 07:00N 67°54' E 003°54'6 6.0 310 / 271003.8 3.3 0.2 7.5
2015-May-23 06:00N 67°48' E 003°54'6 6.0 300 / 271003.710.8 3.0 3.0 1.1 7.5
2015-May-23 05:00N 67°42' E 003°54'1212.2 300 / 271004.1 4.1-0.5 7.5
2015-May-23 04:00N 67°30' E 003°48'6 6.0 310 / 291004.0 4.2 0.3 7.6
2015-May-23 03:00N 67°24' E 003°48'6 6.0 310 / 311003.6 4.3-0.2 7.6
2015-May-23 02:00N 67°18' E 003°48'6 6.0 320 / 331003.3 4.6 1.0 7.7
2015-May-23 01:00N 67°12' E 003°48'6 6.0 320 / 331002.6 5.4 2.7 8.2
2015-May-23 00:00N 67°06' E 003°48'1212.0 330 / 351001.9 4.8 3.1 8.3
2015-May-22 23:00N 66°54' E 003°48'6 6.0 310 / 211002.1 6.2 2.6 8.2
2015-May-22 22:00N 66°48' E 003°48'1212.0 330 / 161001.6 5.8 2.0 7.9
2015-May-22 21:00N 66°36' E 003°48'6 6.5 300 / 121000.9 5.9 2.3 8.0
2015-May-22 20:00N 66°30' E 003°42'1212.0 290 / 141000.1 5.9 2.0 8.1
2015-May-22 19:00N 66°18' E 003°42'6 6.0 270 / 10999.5 6.3 1.3 8.2
2015-May-22 18:00N 66°12' E 003°42'1212.0 240 / 6998.710.8 6.2 1.1 8.1
2015-May-22 17:00N 66°00' E 003°42'6 6.0 280 / 12998.0 5.6 0.1 8.0
2015-May-22 16:00N 65°54' E 003°42'1212.0 220 / 12997.7 6.6 1.8 8.2
2015-May-22 15:00N 65°42' E 003°42'1212.3 230 / 10997.7 5.9 1.2 8.5
2015-May-22 14:00N 65°30' E 003°36'6 6.0 250 / 10997.5 5.5 1.4 8.5
2015-May-22 13:00N 65°24' E 003°36'1212.0 250 / 16997.6 5.9 1.1 8.7
2015-May-22 12:00N 65°12' E 003°36'6 6.0 230 / 19997.710.8 1.5 6.0 2.1 8.6
2015-May-22 11:00N 65°06' E 003°36'1212.0 220 / 21997.8 5.7 1.5 8.7
2015-May-22 10:00N 64°54' E 003°36'1212.0 240 / 19998.2 5.5-0.2 8.6
2015-May-22 09:00N 64°42' E 003°36'6 6.0 230 / 29998.610.8 2.0 6.5 0.2 8.4
2015-May-22 08:00N 64°36' E 003°36'1212.3 240 / 27999.2 5.4 1.5 7.7
2015-May-22 07:00N 64°24' E 003°30'6 6.0 240 / 25999.6 6.5 1.5 8.4
2015-May-22 06:00N 64°18' E 003°30'1212.0 230 / 251000.110.8 2.5 6.7 2.2 8.6
2015-May-22 05:00N 64°06' E 003°30'6 6.0 240 / 29999.8 4.9 1.8 8.6
2015-May-22 04:00N 64°00' E 003°30'1212.0 250 / 251000.3 7.1 1.9 8.6
2015-May-22 03:00N 63°48' E 003°30'1212.0 270 / 271000.4 6.8 2.8 8.5
2015-May-22 02:00N 63°36' E 003°30'6 6.0 260 / 271000.5 7.2 3.7 9.1
2015-May-22 01:00N 63°30' E 003°30'1212.3 270 / 251001.0 7.4 4.8 9.0
2015-May-22 00:00N 63°18' E 003°24'1212.0 210 / 311001.0 8.7 8.5 9.0
2015-May-21 23:00N 63°06' E 003°24'1212.0 200 / 271002.7 8.7 8.4 9.0
2015-May-21 22:00N 62°54' E 003°24'6 6.0 200 / 271004.3 8.6 8.5 8.5
2015-May-21 21:00N 62°48' E 003°24'1212.0 200 / 271005.9 8.5 8.0 8.9
2015-May-21 20:00N 62°36' E 003°24'1212.0 200 / 251007.1 8.5 7.9 8.6
2015-May-21 19:00N 62°24' E 003°24'1212.3 200 / 231008.0 8.7 7.9 8.6
2015-May-21 18:00N 62°12' E 003°18'1212.0 210 / 231008.7 5.4 1.5 8.6 7.7 8.5
2015-May-21 17:00N 62°00' E 003°18'1212.0 210 / 211009.7 8.6 8.0 8.2
2015-May-21 16:00N 61°48' E 003°18'6 6.0 200 / 211010.4 8.4 8.2 8.4
2015-May-21 15:00N 61°42' E 003°18'1212.0 180 / 231010.6 2.2 1.5 8.7 7.6 8.5
2015-May-21 14:00N 61°30' E 003°18'1212.0 190 / 231011.6 8.9 7.4 8.6
2015-May-21 13:00N 61°18' E 003°18'1212.0 190 / 211012.0 8.1 6.3 8.6
2015-May-21 12:00N 61°06' E 003°18'7 6.7 210 / 191012.3 5.4 1.0 7.9 5.8 8.6
2015-May-21 11:00N 61°00' E 003°12'1212.0 220 / 211012.7 8.0 5.9 8.9
2015-May-21 10:00N 60°48' E 003°12'1212.4 180 / 211013.0 8.0 7.0 8.7
2015-May-21 09:00N 60°36' E 003°18'1212.0 200 / 191013.6 5.4 1.0 7.7 5.8 7.9
2015-May-21 08:00N 60°24' E 003°18'1212.0 210 / 141013.9 7.9 6.1 8.7
2015-May-21 07:00N 60°12' E 003°18'1212.4 220 / 161014.0 8.0 6.0 8.7
2015-May-21 06:00N 60°00' E 003°24'1212.0 240 / 161014.010.8 0.5 8.3 5.7 8.9
2015-May-21 05:00N 59°48' E 003°24'1212.0 250 / 121014.3 8.4 6.0 8.9
2015-May-21 04:00N 59°36' E 003°24'6 6.0 230 / 121014.3 8.3 6.2 8.8
2015-May-21 03:00N 59°30' E 003°24'1212.4 240 / 101014.5 8.4 5.2 8.8
2015-May-21 02:00N 59°18' E 003°30'1212.0 210 / 61014.7 8.4 5.5 8.8
2015-May-21 01:00N 59°06' E 003°30'1212.0 200 / 41014.9 8.4 5.4 8.4
2015-May-21 00:00N 58°54' E 003°30'7 6.8 250 / 61014.9 8.2 6.5 8.8
2015-May-20 23:00N 58°48' E 003°36'1413.5 210 / 21014.6 8.2 5.3 9.0
2015-May-20 22:00N 58°36' E 003°48'9 8.7 310 / 21014.5 8.2 6.2 9.0
2015-May-20 21:00N 58°30' E 004°00'1413.5 320 / 41014.2 8.4 6.0 7.9
2015-May-20 20:00N 58°18' E 004°12'9 8.7 320 / 61013.2 8.6 6.5 9.0
2015-May-20 19:00N 58°12' E 004°24'1413.6 310 / 41012.6 8.8 6.4 9.0
2015-May-20 18:00N 58°00' E 004°36'9 8.7 060 / 41011.527.0 8.6 5.6 8.9
2015-May-20 17:00N 57°54' E 004°48'1413.6 030 / 21010.7 8.6 5.4 9.0
2015-May-20 16:00N 57°42' E 005°00'9 8.8 050 / 21010.0 8.4 5.6 8.9
2015-May-20 15:00N 57°36' E 005°12'1413.6 100 / 41009.127.0 8.3 5.6 9.2
2015-May-20 14:00N 57°24' E 005°24'7 6.8 160 / 21008.3 8.4 6.1 9.2
2015-May-20 13:00N 57°18' E 005°30'7 6.8 180 / 21007.9 7.8 6.2 9.1
2015-May-20 12:00N 57°12' E 005°36'7 6.8 290 / 21007.110.8 7.6 6.3 8.9
2015-May-20 11:00N 57°06' E 005°42'1212.4 210 / 121006.1 8.1 6.6 8.2
2015-May-20 10:00N 56°54' E 005°48'1212.4 190 / 161005.8 8.2 6.4 8.5
2015-May-20 09:00N 56°42' E 005°54'7 6.8 180 / 161005.6 5.4 0.5 8.3 7.0 8.6
2015-May-20 08:00N 56°36' E 006°00'1212.4 190 / 161005.6 8.6 6.3 8.4
2015-May-20 07:00N 56°24' E 006°06'7 6.9 200 / 161005.1 8.5 6.2 8.4
2015-May-20 06:00N 56°18' E 006°12'1212.5 200 / 141004.610.8 0.5 8.4 6.8 8.5
2015-May-20 05:00N 56°06' E 006°18'1212.5 200 / 121004.7 8.4 7.2 8.5
2015-May-20 04:00N 55°54' E 006°24'1212.5 210 / 121004.6 8.3 6.9 8.4
2015-May-20 03:00N 55°42' E 006°30'1212.5 220 / 141004.6 8.3 6.7 8.5
2015-May-20 02:00N 55°30' E 006°36'3 7.0 220 / 141004.6 8.6 6.5 8.7
2015-May-20 01:33N 55°27' E 006°35'916.0
2015-May-20 01:00N 55°18' E 006°36'3 7.2 210 / 121004.5 8.9 6.9 8.9
2015-May-20 00:33N 55°16' E 006°40'4 7.5
2015-May-20 00:00N 55°12' E 006°42'614.8 200 / 121004.7 9.1 7.2 9.0
2015-May-19 23:33N 55°06' E 006°45'610.7
2015-May-19 23:00N 55°00' E 006°48'4 9.7 210 / 121004.9 9.3 7.1 9.2
2015-May-19 22:33N 54°57' E 006°52'5 9.0
2015-May-19 22:00N 54°54' E 007°00'   210 / 121005.1 9.5 6.8 9.4

Dump ship's entire track history